Time;durP1;ratioP1;P1;durP2;ratioP2;P2;SDS_P1;SDS_P2;PMS_P1;PMS_P2;Temp;Humidity;BMP_temperature;BMP_pressure;BME280_temperature;BME280_humidity;BME280_pressure;Samples;Min_cycle;Max_cycle;Signal;HPM_P1;HPM_P2
2021/12/18 00:01:26;;;;;;;26.83;4.07;;;7.30;99.90;;;;;;5114618;28;20040;-74
2021/12/18 00:03:52;;;;;;;23.27;3.90;;;7.30;99.90;;;;;;5115444;28;20063;-74
2021/12/18 00:06:18;;;;;;;22.92;3.95;;;7.30;99.90;;;;;;5081109;28;20135;-73
2021/12/18 00:08:44;;;;;;;28.45;4.72;;;7.20;99.90;;;;;;5081491;28;20432;-73
2021/12/18 00:11:10;;;;;;;23.95;4.72;;;7.20;99.90;;;;;;5097119;28;20058;-72
2021/12/18 00:13:36;;;;;;;28.67;4.82;;;7.20;99.90;;;;;;5097932;28;20043;-73
2021/12/18 00:16:03;;;;;;;25.48;4.65;;;7.20;99.90;;;;;;5081195;28;20089;-72
2021/12/18 00:18:30;;;;;;;20.92;5.00;;;7.20;99.90;;;;;;5132098;27;20093;-73
2021/12/18 00:20:58;;;;;;;22.70;4.60;;;7.20;99.90;;;;;;5097884;28;20044;-73
2021/12/18 00:23:24;;;;;;;22.10;2.97;;;7.10;99.90;;;;;;5115669;28;20430;-73
2021/12/18 00:25:50;;;;;;;18.45;2.75;;;7.10;99.90;;;;;;5080372;28;20040;-76
2021/12/18 00:28:16;;;;;;;19.38;3.15;;;7.20;99.90;;;;;;5098058;28;20070;-73
2021/12/18 00:30:42;;;;;;;15.43;2.58;;;7.20;99.90;;;;;;5097095;28;20543;-73
2021/12/18 00:33:08;;;;;;;12.32;2.60;;;7.10;99.90;;;;;;5080698;28;20392;-72
2021/12/18 00:35:34;;;;;;;17.02;2.97;;;7.20;99.90;;;;;;5080822;28;20131;-72
2021/12/18 00:38:04;;;;;;;9.93;2.65;;;7.10;99.90;;;;;;5115424;28;20044;-73
2021/12/18 00:40:43;;;;;;;13.77;2.45;;;7.20;99.90;;;;;;5097044;28;20126;-74
2021/12/18 00:43:23;;;;;;;10.80;1.92;;;7.20;99.90;;;;;;5097148;28;20058;-73
2021/12/18 00:45:50;;;;;;;15.80;2.55;;;7.20;99.90;;;;;;5096604;28;20078;-72
2021/12/18 00:48:16;;;;;;;19.48;2.80;;;7.20;99.90;;;;;;5113967;28;20115;-72
2021/12/18 00:50:42;;;;;;;13.23;2.63;;;7.10;99.90;;;;;;5114702;28;20052;-72
2021/12/18 00:53:08;;;;;;;20.13;2.38;;;7.20;99.90;;;;;;5096339;28;20383;-73
2021/12/18 00:55:36;;;;;;;14.13;2.47;;;7.20;99.90;;;;;;5113607;28;20079;-73
2021/12/18 00:58:03;;;;;;;15.35;2.00;;;7.20;99.90;;;;;;5096169;28;20475;-73
2021/12/18 01:00:28;;;;;;;13.50;2.15;;;7.20;99.90;;;;;;5079230;28;20096;-74
2021/12/18 01:02:59;;;;;;;17.17;2.50;;;7.20;99.90;;;;;;5079152;28;20386;-75
2021/12/18 01:05:27;;;;;;;18.85;2.78;;;7.20;99.90;;;;;;5096006;28;20504;-73
2021/12/18 01:07:56;;;;;;;27.42;4.82;;;7.20;99.90;;;;;;5095791;28;20051;-76
2021/12/18 01:12:56;;;;;;;17.63;2.80;;;7.10;99.90;;;;;;5114707;28;20054;-76
2021/12/18 01:15:29;;;;;;;12.35;2.85;;;7.10;99.90;;;;;;5095701;28;20071;-73
2021/12/18 01:23:25;;;;;;;10.32;1.95;;;7.20;99.90;;;;;;5098577;28;20055;-74
2021/12/18 01:25:53;;;;;;;10.38;2.13;;;7.10;99.90;;;;;;5095790;28;20122;-72
2021/12/18 01:28:19;;;;;;;15.55;2.25;;;7.10;99.90;;;;;;5096215;28;20138;-72
2021/12/18 01:30:45;;;;;;;12.13;1.95;;;7.10;99.90;;;;;;5061630;28;20134;-74
2021/12/18 01:33:12;;;;;;;8.10;1.40;;;7.00;99.90;;;;;;5113530;28;20035;-73
2021/12/18 01:35:37;;;;;;;8.40;1.92;;;7.00;99.90;;;;;;5095429;28;20051;-73
2021/12/18 01:38:04;;;;;;;9.60;2.05;;;6.90;99.90;;;;;;5095219;28;20040;-73
2021/12/18 01:40:30;;;;;;;10.43;1.42;;;7.00;99.90;;;;;;5113527;28;20048;-74
2021/12/18 01:46:20;;;;;;;8.23;1.33;;;7.00;99.90;;;;;;5050769;28;20120;-73
2021/12/18 01:54:12;;;;;;;6.32;1.00;;;6.80;99.90;;;;;;5114071;28;20393;-73
2021/12/18 01:56:38;;;;;;;6.75;0.85;;;6.80;99.90;;;;;;5095235;28;20513;-73
2021/12/18 01:59:04;;;;;;;9.38;1.10;;;6.80;99.90;;;;;;5095184;28;20437;-74
2021/12/18 02:01:30;;;;;;;9.00;1.33;;;6.80;99.90;;;;;;5113332;28;20043;-73
2021/12/18 02:03:56;;;;;;;7.35;0.90;;;6.80;99.90;;;;;;5095026;28;20039;-73
2021/12/18 02:06:23;;;;;;;10.65;1.25;;;6.80;99.90;;;;;;5094948;28;20101;-74
2021/12/18 02:08:49;;;;;;;9.57;1.02;;;6.80;99.90;;;;;;5095218;28;20055;-74
2021/12/18 02:11:27;;;;;;;14.00;1.60;;;6.80;99.90;;;;;;5113035;28;20063;-73
2021/12/18 02:21:54;;;;;;;10.60;1.35;;;6.80;99.90;;;;;;5112995;28;20044;-74
2021/12/18 02:24:23;;;;;;;9.77;1.00;;;6.80;99.90;;;;;;5112782;28;20101;-74
2021/12/18 02:26:49;;;;;;;8.18;0.82;;;6.80;99.90;;;;;;5078897;28;20040;-73
2021/12/18 02:29:16;;;;;;;8.20;0.70;;;6.60;99.90;;;;;;5094642;28;20052;-73
2021/12/18 02:31:44;;;;;;;9.70;0.82;;;6.50;99.90;;;;;;5112752;28;20172;-74
2021/12/18 02:34:16;;;;;;;6.75;1.00;;;6.50;99.90;;;;;;5111857;28;20055;-73
2021/12/18 02:36:46;;;;;;;6.60;0.82;;;6.50;99.90;;;;;;5112943;28;20047;-73
2021/12/18 02:39:36;;;;;;;4.97;1.00;;;6.50;99.90;;;;;;5094669;28;20047;-73
2021/12/18 02:42:11;;;;;;;16.58;0.80;;;6.50;99.90;;;;;;5098045;28;20065;-76
2021/12/18 02:44:41;;;;;;;5.90;0.57;;;6.40;99.90;;;;;;5108106;28;20504;-74
2021/12/18 02:47:08;;;;;;;8.93;0.80;;;6.40;99.90;;;;;;5093143;28;20082;-74
2021/12/18 02:49:34;;;;;;;7.57;0.73;;;6.40;99.90;;;;;;5074662;28;20204;-74
2021/12/18 02:51:59;;;;;;;9.45;0.77;;;6.40;99.90;;;;;;5092082;28;20102;-73
2021/12/18 02:54:26;;;;;;;11.73;0.70;;;6.40;99.90;;;;;;5074213;28;20412;-74
2021/12/18 02:56:52;;;;;;;11.10;0.65;;;6.40;99.90;;;;;;5074486;28;20468;-73
2021/12/18 02:59:19;;;;;;;4.30;0.57;;;6.40;99.90;;;;;;5090901;28;20055;-74
2021/12/18 03:01:45;;;;;;;6.03;0.80;;;6.40;99.90;;;;;;5091118;28;20441;-75
2021/12/18 03:04:21;;;;;;;16.15;0.90;;;6.40;99.90;;;;;;5074280;28;20109;-74
2021/12/18 03:06:52;;;;;;;10.32;0.95;;;6.50;99.90;;;;;;5091630;28;20495;-77
2021/12/18 03:25:30;;;;;;;4.28;0.65;;;6.20;99.90;;;;;;5091473;28;20423;-74
2021/12/18 03:28:03;;;;;;;6.20;0.80;;;6.30;99.90;;;;;;5091846;28;20471;-74
2021/12/18 03:30:29;;;;;;;7.80;0.98;;;6.30;99.90;;;;;;5091573;28;20096;-75
2021/12/18 03:32:55;;;;;;;6.17;0.70;;;6.30;99.90;;;;;;5092175;28;20438;-74
2021/12/18 03:35:22;;;;;;;15.63;0.90;;;6.30;99.90;;;;;;5092059;28;20392;-74
2021/12/18 03:37:48;;;;;;;7.85;0.65;;;6.30;99.90;;;;;;5090910;28;20044;-75
2021/12/18 03:40:19;;;;;;;9.68;0.80;;;6.40;99.90;;;;;;5093399;28;20485;-75
2021/12/18 03:42:46;;;;;;;11.40;0.82;;;6.40;99.90;;;;;;5096126;28;20097;-74
2021/12/18 03:45:14;;;;;;;8.27;0.70;;;6.20;99.90;;;;;;5109387;28;20561;-75
2021/12/18 03:47:40;;;;;;;8.68;1.10;;;6.30;99.90;;;;;;5080913;28;20054;-75
2021/12/18 03:50:07;;;;;;;10.20;0.85;;;6.30;99.90;;;;;;5132194;27;20139;-73
2021/12/18 03:52:33;;;;;;;11.75;0.93;;;6.30;99.90;;;;;;5115806;28;20050;-74
2021/12/18 03:55:02;;;;;;;6.38;0.70;;;6.30;99.90;;;;;;5097709;28;20036;-75
2021/12/18 03:57:28;;;;;;;9.98;1.10;;;6.30;99.90;;;;;;5064734;28;20472;-73
2021/12/18 03:59:54;;;;;;;10.32;1.13;;;6.30;99.90;;;;;;5131860;27;20052;-75
2021/12/18 04:02:20;;;;;;;8.48;1.10;;;6.30;99.90;;;;;;5097343;28;20048;-74
2021/12/18 04:04:45;;;;;;;12.27;1.00;;;6.30;99.90;;;;;;5063930;28;20074;-75
2021/12/18 04:07:12;;;;;;;9.35;1.13;;;6.30;99.90;;;;;;5098408;28;20314;-76
2021/12/18 04:09:38;;;;;;;9.23;0.80;;;6.30;99.90;;;;;;5097551;28;20035;-75
2021/12/18 04:12:04;;;;;;;11.10;1.13;;;6.30;99.90;;;;;;5080928;28;20523;-74
2021/12/18 04:14:30;;;;;;;9.13;1.00;;;6.30;99.90;;;;;;5097600;28;20175;-74
2021/12/18 04:16:56;;;;;;;10.27;0.73;;;6.30;99.90;;;;;;5117203;28;20051;-74
2021/12/18 04:19:22;;;;;;;13.07;0.93;;;6.30;99.90;;;;;;5116420;28;20059;-73
2021/12/18 04:21:48;;;;;;;7.03;0.45;;;6.20;99.90;;;;;;5097595;28;20124;-75
2021/12/18 04:24:14;;;;;;;8.63;0.80;;;6.10;99.90;;;;;;5097523;28;20101;-73
2021/12/18 04:26:40;;;;;;;13.63;0.82;;;6.10;99.90;;;;;;5116459;28;20083;-75
2021/12/18 04:29:06;;;;;;;7.65;0.65;;;6.00;99.90;;;;;;5064543;28;20136;-74
2021/12/18 04:31:34;;;;;;;9.32;0.60;;;6.00;99.90;;;;;;5115763;28;20039;-75
2021/12/18 04:34:00;;;;;;;6.50;0.65;;;6.00;99.90;;;;;;5115728;28;20043;-73
2021/12/18 04:36:26;;;;;;;7.22;0.80;;;5.90;99.90;;;;;;5115315;28;20043;-74
2021/12/18 04:38:52;;;;;;;8.45;1.23;;;5.90;99.90;;;;;;5097613;28;20051;-74
2021/12/18 04:41:23;;;;;;;10.32;1.30;;;5.80;99.90;;;;;;5097201;28;20035;-75
2021/12/18 04:43:50;;;;;;;9.30;1.00;;;5.90;99.90;;;;;;5098186;28;20036;-73
2021/12/18 04:46:16;;;;;;;10.90;1.27;;;5.80;99.90;;;;;;5097387;28;20055;-74
2021/12/18 04:48:42;;;;;;;10.00;1.77;;;5.80;99.90;;;;;;5115023;28;20441;-75
2021/12/18 04:51:08;;;;;;;9.45;1.30;;;5.80;99.90;;;;;;5129494;27;20118;-74
2021/12/18 04:53:33;;;;;;;7.65;1.25;;;5.80;99.90;;;;;;5096260;28;20115;-75
2021/12/18 04:55:59;;;;;;;7.72;1.15;;;5.80;99.90;;;;;;5096362;28;20043;-74
2021/12/18 04:58:25;;;;;;;8.32;1.13;;;5.80;99.90;;;;;;5096103;28;20052;-74
2021/12/18 05:00:51;;;;;;;13.18;1.10;;;5.80;99.90;;;;;;5096549;28;20429;-75
2021/12/18 05:03:18;;;;;;;6.20;0.90;;;5.80;99.90;;;;;;5095676;28;20483;-75
2021/12/18 05:05:45;;;;;;;9.80;1.50;;;5.80;99.90;;;;;;5079430;28;20100;-74
2021/12/18 05:08:11;;;;;;;11.55;1.52;;;5.80;99.90;;;;;;5078817;28;20051;-74
2021/12/18 05:10:37;;;;;;;11.70;0.88;;;5.90;99.90;;;;;;5079042;28;20058;-74
2021/12/18 05:13:03;;;;;;;9.90;1.30;;;5.90;99.90;;;;;;5096833;28;20070;-72
2021/12/18 05:15:29;;;;;;;14.60;2.13;;;5.90;99.90;;;;;;5113657;28;20520;-74
2021/12/18 05:17:55;;;;;;;16.70;3.00;;;5.90;99.90;;;;;;5079282;28;20047;-74
2021/12/18 05:20:21;;;;;;;17.60;2.45;;;5.90;99.90;;;;;;5095555;28;20047;-75
2021/12/18 05:22:47;;;;;;;13.73;1.63;;;5.90;99.90;;;;;;5113927;28;20083;-74
2021/12/18 05:25:12;;;;;;;8.93;0.93;;;6.00;99.90;;;;;;5096314;28;20051;-74
2021/12/18 05:27:39;;;;;;;14.75;1.60;;;5.90;99.90;;;;;;5095385;28;20042;-74
2021/12/18 05:30:07;;;;;;;15.38;1.70;;;5.90;99.90;;;;;;5129990;27;20432;-74
2021/12/18 05:32:32;;;;;;;14.38;1.88;;;6.00;99.90;;;;;;5095779;28;20075;-74
2021/12/18 05:34:59;;;;;;;13.30;1.48;;;6.00;99.90;;;;;;5078925;28;20044;-73
2021/12/18 05:39:51;;;;;;;13.63;2.35;;;6.00;99.90;;;;;;5113989;28;20122;-73
2021/12/18 05:42:18;;;;;;;17.92;2.95;;;6.00;99.90;;;;;;5095259;28;20043;-74
2021/12/18 05:44:45;;;;;;;18.52;2.05;;;5.90;99.90;;;;;;5113244;28;20196;-73
2021/12/18 05:47:11;;;;;;;11.63;1.75;;;6.00;99.90;;;;;;5111987;28;20062;-74
2021/12/18 05:49:37;;;;;;;16.08;1.90;;;6.00;99.90;;;;;;5113408;28;20044;-74
2021/12/18 05:52:05;;;;;;;15.38;2.60;;;6.00;99.90;;;;;;5095400;28;20387;-74
2021/12/18 05:54:34;;;;;;;14.25;1.88;;;6.00;99.90;;;;;;5078360;28;20223;-74
2021/12/18 05:57:02;;;;;;;11.95;1.85;;;5.90;99.90;;;;;;5096266;28;20393;-74
2021/12/18 05:59:28;;;;;;;7.65;1.50;;;5.90;99.90;;;;;;5078934;28;20047;-75
2021/12/18 06:01:54;;;;;;;8.75;1.50;;;5.80;99.90;;;;;;5112974;28;20036;-75
2021/12/18 06:04:19;;;;;;;10.35;1.63;;;5.80;99.90;;;;;;5113202;28;20127;-76
2021/12/18 06:06:45;;;;;;;13.00;1.85;;;5.80;99.90;;;;;;5113322;28;20141;-74
2021/12/18 06:09:11;;;;;;;8.75;1.58;;;5.80;99.90;;;;;;5113460;28;20134;-74
2021/12/18 06:11:39;;;;;;;8.77;1.40;;;5.80;99.90;;;;;;5095113;28;20092;-75
2021/12/18 06:14:05;;;;;;;9.88;2.10;;;5.80;99.90;;;;;;5128974;27;20055;-74
2021/12/18 06:16:31;;;;;;;14.85;1.27;;;5.90;99.90;;;;;;5113237;28;20048;-74
2021/12/18 06:18:57;;;;;;;9.98;0.82;;;5.90;99.90;;;;;;5112983;28;20035;-74
2021/12/18 06:21:23;;;;;;;14.65;1.30;;;5.90;99.90;;;;;;5094865;28;20044;-76
2021/12/18 06:23:52;;;;;;;10.13;1.20;;;5.90;99.90;;;;;;5113148;28;20500;-74
2021/12/18 06:26:19;;;;;;;12.55;1.23;;;5.90;99.90;;;;;;5094692;28;20047;-74
2021/12/18 06:28:45;;;;;;;12.57;1.20;;;5.90;99.90;;;;;;5128825;27;20456;-74
2021/12/18 06:31:11;;;;;;;13.93;1.20;;;6.00;99.90;;;;;;5094866;28;20050;-74
2021/12/18 06:33:36;;;;;;;16.13;1.60;;;6.00;99.90;;;;;;5129078;27;20123;-75
2021/12/18 06:36:03;;;;;;;12.80;1.40;;;6.10;99.90;;;;;;5094819;28;20083;-74
2021/12/18 06:38:29;;;;;;;21.70;1.58;;;6.00;99.90;;;;;;5094756;28;20122;-75
2021/12/18 06:40:55;;;;;;;12.15;1.67;;;6.00;99.90;;;;;;5094745;28;20134;-74
2021/12/18 06:43:20;;;;;;;11.30;1.25;;;6.10;99.90;;;;;;5077837;28;20079;-75
2021/12/18 06:45:46;;;;;;;13.63;1.27;;;6.10;99.90;;;;;;5113099;28;20055;-75
2021/12/18 06:48:12;;;;;;;19.13;1.50;;;6.10;99.90;;;;;;5078100;28;20044;-75
2021/12/18 06:50:38;;;;;;;13.75;1.48;;;6.10;99.90;;;;;;5094735;28;20043;-75
2021/12/18 06:53:05;;;;;;;18.90;1.00;;;6.10;99.90;;;;;;5112877;28;20108;-75
2021/12/18 06:55:32;;;;;;;13.63;1.42;;;6.10;99.90;;;;;;5129005;28;20079;-74
2021/12/18 06:57:58;;;;;;;13.73;1.10;;;6.00;99.90;;;;;;5113453;28;20067;-74
2021/12/18 07:00:25;;;;;;;11.77;1.30;;;6.00;99.90;;;;;;5094145;28;20044;-75
2021/12/18 07:02:51;;;;;;;15.02;0.98;;;6.10;99.90;;;;;;5128711;28;20058;-75
2021/12/18 07:05:17;;;;;;;8.40;1.20;;;6.10;99.90;;;;;;5094856;28;20124;-74
2021/12/18 07:07:43;;;;;;;11.73;1.00;;;6.10;99.90;;;;;;5094606;28;20111;-73
2021/12/18 07:10:11;;;;;;;10.68;1.10;;;6.10;99.90;;;;;;5112740;28;20521;-74
2021/12/18 07:12:37;;;;;;;13.50;1.20;;;6.00;99.90;;;;;;5112427;28;20044;-74
2021/12/18 07:15:05;;;;;;;11.40;0.90;;;6.10;99.90;;;;;;5096937;28;20044;-74
2021/12/18 07:17:31;;;;;;;9.70;0.80;;;6.10;99.90;;;;;;5132724;27;20104;-74
2021/12/18 07:19:57;;;;;;;13.98;1.20;;;6.00;99.90;;;;;;5116784;28;20415;-74
2021/12/18 07:22:23;;;;;;;14.63;1.00;;;6.00;99.90;;;;;;5081795;28;20131;-74
2021/12/18 07:24:49;;;;;;;11.55;1.08;;;6.10;99.90;;;;;;5116802;28;20063;-74
2021/12/18 07:27:15;;;;;;;14.30;0.98;;;6.10;99.90;;;;;;5116875;28;20274;-74
2021/12/18 07:29:40;;;;;;;8.35;0.70;;;6.00;99.90;;;;;;5115805;28;20119;-75
2021/12/18 07:32:06;;;;;;;14.30;0.98;;;6.00;99.90;;;;;;5115899;28;20047;-75
2021/12/18 07:34:32;;;;;;;11.93;1.00;;;6.00;99.90;;;;;;5116357;28;20040;-75
2021/12/18 07:36:58;;;;;;;12.43;1.00;;;6.10;99.90;;;;;;5116334;28;20388;-75
2021/12/18 07:39:24;;;;;;;11.60;1.10;;;6.00;99.90;;;;;;5116199;28;20035;-75
2021/12/18 07:41:49;;;;;;;10.27;0.80;;;6.00;99.90;;;;;;5114841;27;20035;-76
2021/12/18 07:44:15;;;;;;;9.32;0.75;;;6.00;99.90;;;;;;5098206;28;20044;-76
2021/12/18 07:46:41;;;;;;;8.95;0.93;;;6.00;99.90;;;;;;5098434;28;20087;-76
2021/12/18 07:49:08;;;;;;;7.47;0.60;;;6.10;99.90;;;;;;5116017;28;20151;-76
2021/12/18 07:51:35;;;;;;;7.03;0.82;;;6.10;99.90;;;;;;5081425;28;20494;-76
2021/12/18 07:54:01;;;;;;;7.80;0.82;;;6.10;99.90;;;;;;5115992;28;20043;-76
2021/12/18 07:56:27;;;;;;;11.15;1.13;;;6.10;99.90;;;;;;5081206;28;20048;-75
2021/12/18 07:58:53;;;;;;;13.52;1.45;;;6.10;99.90;;;;;;5081514;28;20138;-76
2021/12/18 08:01:19;;;;;;;12.43;1.33;;;6.10;99.90;;;;;;5098468;28;20047;-74
2021/12/18 08:03:45;;;;;;;12.90;2.17;;;6.10;99.90;;;;;;5085078;28;20054;-74
2021/12/18 08:06:11;;;;;;;13.18;1.25;;;6.10;99.90;;;;;;5090331;28;20071;-74
2021/12/18 08:08:37;;;;;;;11.20;1.17;;;6.20;99.90;;;;;;5123905;28;20088;-74
2021/12/18 08:11:03;;;;;;;23.30;1.20;;;6.10;99.90;;;;;;5087878;28;20058;-75
2021/12/18 08:13:29;;;;;;;15.63;1.40;;;6.20;99.90;;;;;;5137800;27;20122;-76
2021/12/18 08:15:55;;;;;;;16.83;1.40;;;6.20;99.90;;;;;;5139614;27;20104;-75
2021/12/18 08:18:21;;;;;;;13.05;1.42;;;6.20;99.90;;;;;;5101355;28;20566;-74
2021/12/18 08:20:47;;;;;;;17.95;1.58;;;6.20;99.90;;;;;;5117742;28;20130;-75
2021/12/18 08:23:13;;;;;;;14.15;1.88;;;6.20;99.90;;;;;;5083516;28;20043;-75
2021/12/18 08:25:39;;;;;;;19.42;2.55;;;6.20;99.90;;;;;;5086712;28;20167;-75
2021/12/18 08:28:05;;;;;;;15.27;2.10;;;6.30;99.90;;;;;;5120831;28;20039;-75
2021/12/18 08:30:34;;;;;;;13.85;2.03;;;6.30;99.90;;;;;;5117797;28;20051;-77
2021/12/18 08:33:00;;;;;;;16.27;2.15;;;6.40;99.90;;;;;;5116444;28;20054;-75
2021/12/18 08:35:27;;;;;;;15.95;2.15;;;6.30;99.90;;;;;;5086196;28;20043;-74
2021/12/18 08:37:53;;;;;;;;;;;6.40;99.90;;;;;;5100146;28;20113;-75
2021/12/18 08:40:19;;;;;;;16.63;2.33;;;6.40;99.90;;;;;;5116858;28;19920;-76
2021/12/18 08:42:45;;;;;;;16.95;2.10;;;6.50;99.90;;;;;;5080542;28;20395;-75
2021/12/18 08:45:13;;;;;;;12.93;2.13;;;6.50;99.90;;;;;;5076940;28;20056;-75
2021/12/18 08:47:39;;;;;;;15.90;2.53;;;6.50;99.90;;;;;;5093310;28;20059;-75
2021/12/18 08:50:06;;;;;;;17.23;2.33;;;6.60;99.90;;;;;;5094053;28;20044;-75
2021/12/18 08:52:32;;;;;;;19.42;2.42;;;6.70;99.90;;;;;;5094353;28;20052;-75
2021/12/18 08:54:59;;;;;;;15.98;1.80;;;6.70;99.90;;;;;;5094431;28;20048;-75
2021/12/18 08:57:26;;;;;;;;;;;6.70;99.90;;;;;;5095081;28;20044;-76
2021/12/18 08:59:51;;;;;;;16.85;2.08;;;6.70;99.90;;;;;;5093065;28;20010;-76
2021/12/18 09:02:17;;;;;;;18.50;2.67;;;6.60;99.90;;;;;;5059707;28;20515;-76
2021/12/18 09:04:47;;;;;;;19.35;3.08;;;6.70;99.90;;;;;;5093117;28;20054;-76
2021/12/18 09:07:13;;;;;;;17.20;3.67;;;6.70;99.90;;;;;;5093117;28;20040;-76
2021/12/18 09:09:40;;;;;;;21.05;3.20;;;6.70;99.90;;;;;;5093002;28;20518;-76
2021/12/18 09:12:11;;;;;;;13.05;2.08;;;6.80;99.90;;;;;;5093983;28;20043;-75
2021/12/18 09:14:38;;;;;;;21.73;2.67;;;6.80;99.90;;;;;;5092433;28;20048;-76
2021/12/18 09:17:04;;;;;;;;;;;6.80;99.90;;;;;;5093765;28;20067;-75
2021/12/18 09:19:30;;;;;;;14.45;2.45;;;6.70;99.90;;;;;;5094507;28;19920;-76
2021/12/18 09:21:56;;;;;;;20.13;3.05;;;6.70;99.90;;;;;;5092469;28;20105;-75
2021/12/18 09:24:22;;;;;;;17.67;2.95;;;6.80;99.90;;;;;;5092594;28;20214;-75
2021/12/18 09:26:48;;;;;;;15.07;3.20;;;6.80;99.90;;;;;;5092435;28;20456;-76
2021/12/18 09:29:14;;;;;;;16.70;2.85;;;6.90;99.90;;;;;;5093479;28;20047;-75
2021/12/18 09:31:40;;;;;;;20.23;3.25;;;6.90;99.90;;;;;;5092154;28;20044;-75
2021/12/18 09:34:06;;;;;;;18.83;4.40;;;7.00;99.90;;;;;;5092355;28;20157;-74
2021/12/18 09:36:31;;;;;;;21.02;3.55;;;6.90;99.90;;;;;;5093052;28;20055;-75
2021/12/18 09:39:00;;;;;;;18.67;3.70;;;7.00;99.90;;;;;;5093425;28;20078;-74
2021/12/18 09:41:26;;;;;;;21.83;4.20;;;7.00;99.90;;;;;;5091980;28;20047;-74
2021/12/18 09:43:52;;;;;;;16.85;4.05;;;7.00;99.90;;;;;;5093023;28;20043;-74
2021/12/18 09:46:18;;;;;;;18.42;3.72;;;7.00;99.90;;;;;;5084951;28;20058;-75
2021/12/18 09:48:45;;;;;;;23.40;4.10;;;7.10;99.90;;;;;;5092071;28;20062;-76
2021/12/18 09:51:22;;;;;;;15.30;3.63;;;7.10;99.90;;;;;;5076034;28;20388;-75
2021/12/18 09:53:50;;;;;;;18.83;3.85;;;7.10;99.90;;;;;;5060161;28;20136;-75
2021/12/18 09:56:16;;;;;;;19.77;3.88;;;7.20;99.90;;;;;;5093240;28;20052;-75
2021/12/18 09:58:42;;;;;;;26.05;5.03;;;7.30;99.90;;;;;;5092135;28;20043;-76
2021/12/18 10:01:08;;;;;;;21.17;4.50;;;7.30;99.90;;;;;;5092769;28;20097;-74
2021/12/18 10:03:53;;;;;;;22.40;5.05;;;7.30;99.90;;;;;;5074986;28;20044;-75
2021/12/18 10:06:38;;;;;;;21.88;5.53;;;7.30;99.90;;;;;;5091485;28;20503;-75
2021/12/18 10:09:18;;;;;;;18.73;5.20;;;7.40;99.90;;;;;;5075189;28;20051;-75
2021/12/18 10:11:56;;;;;;;24.20;4.72;;;7.30;99.90;;;;;;5091661;28;20048;-75
2021/12/18 10:14:38;;;;;;;18.88;4.57;;;7.40;99.90;;;;;;5092766;28;20137;-74
2021/12/18 10:17:18;;;;;;;21.08;5.35;;;7.40;99.90;;;;;;5092512;28;20485;-74
2021/12/18 10:19:44;;;;;;;22.75;5.78;;;7.50;99.90;;;;;;5093367;28;20048;-75
2021/12/18 10:22:13;;;;;;;26.40;5.35;;;7.50;99.90;;;;;;5074541;28;20051;-74
2021/12/18 10:24:44;;;;;;;28.55;5.55;;;7.60;99.90;;;;;;5092372;28;20365;-75
2021/12/18 10:27:24;;;;;;;17.88;5.03;;;7.60;99.90;;;;;;5093181;28;20044;-75
2021/12/18 10:29:52;;;;;;;23.50;4.90;;;7.70;99.90;;;;;;5092546;28;20067;-75
2021/12/18 10:32:20;;;;;;;22.30;5.05;;;7.80;99.90;;;;;;5091512;28;20059;-75
2021/12/18 10:34:55;;;;;;;23.33;5.80;;;7.80;99.90;;;;;;5092355;28;20047;-75
2021/12/18 10:37:22;;;;;;;20.70;5.85;;;7.80;99.90;;;;;;5074533;28;20411;-75
2021/12/18 10:39:51;;;;;;;20.85;5.32;;;7.90;99.90;;;;;;5091380;28;20040;-75
2021/12/18 10:42:31;;;;;;;20.63;5.47;;;7.90;99.90;;;;;;5092174;28;20083;-74
2021/12/18 10:45:06;;;;;;;19.17;5.65;;;8.00;99.90;;;;;;5091990;28;20044;-74
2021/12/18 10:47:51;;;;;;;24.45;6.22;;;8.00;99.90;;;;;;5113618;28;20088;-74
2021/12/18 10:50:19;;;;;;;24.50;5.07;;;8.00;99.90;;;;;;5097591;28;20130;-75
2021/12/18 10:52:51;;;;;;;24.73;5.47;;;8.10;99.90;;;;;;5098833;28;20047;-77
2021/12/18 10:55:17;;;;;;;23.15;5.28;;;8.10;99.90;;;;;;5099182;28;20039;-75
2021/12/18 10:57:54;;;;;;;20.83;5.70;;;8.20;99.90;;;;;;5099523;28;20181;-75
2021/12/18 11:00:38;;;;;;;24.02;5.55;;;8.30;99.90;;;;;;5099275;28;20487;-75
2021/12/18 11:03:20;;;;;;;20.55;5.05;;;8.30;99.90;;;;;;5098847;28;20047;-74
2021/12/18 11:06:11;;;;;;;18.95;5.05;;;8.30;99.90;;;;;;5116786;28;20043;-76
2021/12/18 11:09:05;;;;;;;20.60;5.57;;;8.30;99.90;;;;;;5099284;28;20059;-75
2021/12/18 11:14:34;;;;;;;17.10;4.57;;;8.40;99.90;;;;;;5116950;28;20086;-75
2021/12/18 11:17:04;;;;;;;22.73;5.05;;;8.40;99.90;;;;;;5116031;27;20072;-75
2021/12/18 11:19:32;;;;;;;15.82;4.30;;;8.50;99.90;;;;;;5115381;28;20075;-75
2021/12/18 11:22:24;;;;;;;16.10;5.13;;;8.50;99.90;;;;;;5081164;28;20118;-75
2021/12/18 11:25:02;;;;;;;21.98;4.88;;;8.50;99.90;;;;;;5094491;28;20055;-75
2021/12/18 11:27:31;;;;;;;17.50;4.90;;;8.50;99.90;;;;;;5098730;28;20131;-75
2021/12/18 11:30:06;;;;;;;18.58;4.63;;;8.40;99.90;;;;;;5116113;28;20082;-75
2021/12/18 11:32:36;;;;;;;20.20;4.57;;;8.50;99.90;;;;;;5116808;28;20044;-75
2021/12/18 11:35:07;;;;;;;19.80;5.55;;;8.60;99.90;;;;;;5081797;28;20105;-75
2021/12/18 11:37:47;;;;;;;18.33;4.78;;;8.60;99.90;;;;;;5099128;28;20083;-75
2021/12/18 11:40:20;;;;;;;14.60;4.43;;;8.50;99.90;;;;;;5098191;28;20036;-74
2021/12/18 11:42:46;;;;;;;16.13;5.20;;;8.60;99.90;;;;;;5114796;27;20532;-74
2021/12/18 11:45:13;;;;;;;13.68;4.20;;;8.50;99.90;;;;;;5116153;28;20052;-74
2021/12/18 11:47:40;;;;;;;15.93;4.13;;;8.60;99.90;;;;;;5116524;28;20044;-74
2021/12/18 11:50:33;;;;;;;14.55;4.60;;;8.70;99.90;;;;;;5064310;28;20181;-74
2021/12/18 11:53:09;;;;;;;14.48;4.43;;;8.70;99.90;;;;;;5097800;28;20046;-74
2021/12/18 11:55:53;;;;;;;16.70;4.70;;;8.70;99.90;;;;;;5098022;28;20047;-74
2021/12/18 11:58:22;;;;;;;21.25;5.68;;;8.70;99.90;;;;;;5081145;28;20043;-74
2021/12/18 12:00:51;;;;;;;19.52;4.97;;;8.70;99.90;;;;;;5115052;28;20048;-75
2021/12/18 12:03:43;;;;;;;15.75;5.13;;;8.70;99.90;;;;;;5131802;27;20475;-74
2021/12/18 12:06:19;;;;;;;16.67;4.90;;;8.60;99.90;;;;;;5132917;27;20050;-74
2021/12/18 12:08:45;;;;;;;16.15;5.03;;;8.80;99.90;;;;;;5116271;28;20050;-74
2021/12/18 12:11:15;;;;;;;15.55;4.82;;;8.80;99.90;;;;;;5081272;28;20055;-74
2021/12/18 12:14:02;;;;;;;15.02;4.88;;;8.70;99.90;;;;;;5116015;28;20059;-75
2021/12/18 12:16:46;;;;;;;;;;;8.70;99.90;;;;;;5116843;28;20043;-74
2021/12/18 12:19:27;;;;;;;25.58;4.80;;;8.60;99.90;;;;;;5115359;28;19915;-74
2021/12/18 12:21:57;;;;;;;19.88;5.30;;;8.60;99.90;;;;;;5097514;28;20043;-74
2021/12/18 12:24:30;;;;;;;16.02;4.47;;;8.60;99.90;;;;;;5097743;28;20051;-74
2021/12/18 12:27:30;;;;;;;15.88;4.60;;;8.60;99.90;;;;;;5097615;28;20047;-74
2021/12/18 12:29:57;;;;;;;17.63;4.63;;;8.60;99.90;;;;;;5116410;28;20351;-74
2021/12/18 12:32:23;;;;;;;;;;;8.60;99.90;;;;;;5116378;27;20040;-73
2021/12/18 12:35:12;;;;;;;17.80;4.50;;;8.70;99.90;;;;;;5098763;28;20006;-74
2021/12/18 12:37:43;;;;;;;11.70;3.75;;;8.80;99.90;;;;;;5134247;27;20446;-74
2021/12/18 12:40:13;;;;;;;9.80;3.50;;;8.70;99.90;;;;;;5116638;28;20040;-74
2021/12/18 12:42:42;;;;;;;12.93;3.55;;;8.70;99.90;;;;;;5100997;28;20046;-74
2021/12/18 12:45:29;;;;;;;10.50;3.17;;;8.80;99.90;;;;;;5131466;27;20356;-76
2021/12/18 12:47:55;;;;;;;15.02;3.28;;;8.70;99.90;;;;;;5115073;28;20043;-75
2021/12/18 12:50:21;;;;;;;11.27;2.40;;;8.70;99.90;;;;;;5096809;28;20042;-75
2021/12/18 12:52:55;;;;;;;8.75;2.63;;;8.70;99.90;;;;;;5080050;28;20040;-74
2021/12/18 12:55:23;;;;;;;8.57;2.40;;;8.70;99.90;;;;;;5114497;28;20044;-74
2021/12/18 12:58:01;;;;;;;6.10;1.58;;;8.70;99.90;;;;;;5130483;27;20127;-75
2021/12/18 13:00:47;;;;;;;8.68;1.77;;;8.60;99.90;;;;;;5114754;28;20086;-74
2021/12/18 13:03:18;;;;;;;8.30;1.90;;;8.70;99.90;;;;;;5113446;28;20040;-73
2021/12/18 13:05:58;;;;;;;8.23;1.90;;;8.70;99.90;;;;;;5114350;28;20502;-75
2021/12/18 13:08:25;;;;;;;7.78;1.83;;;8.70;99.90;;;;;;5114823;28;20127;-73
2021/12/18 13:10:54;;;;;;;12.30;2.22;;;8.80;99.90;;;;;;5079864;28;20123;-73
2021/12/18 13:13:23;;;;;;;7.78;2.17;;;8.80;99.90;;;;;;5112397;27;20044;-72
2021/12/18 13:16:09;;;;;;;8.50;2.45;;;8.70;99.90;;;;;;5096166;28;20092;-73
2021/12/18 13:18:41;;;;;;;12.23;2.30;;;8.80;99.90;;;;;;5131033;27;20050;-75
2021/12/18 13:21:39;;;;;;;9.88;2.55;;;8.80;99.90;;;;;;5130464;27;20074;-75
2021/12/18 13:24:07;;;;;;;8.23;2.35;;;8.70;99.90;;;;;;5094520;28;20417;-75
2021/12/18 13:26:34;;;;;;;9.05;2.58;;;8.80;99.90;;;;;;5113496;28;20087;-74
2021/12/18 13:29:06;;;;;;;;;;;8.70;99.90;;;;;;5114316;28;20039;-74
2021/12/18 13:31:34;;;;;;;10.48;1.98;;;8.70;99.90;;;;;;5096388;28;19916;-74
2021/12/18 13:34:04;;;;;;;8.73;2.88;;;8.60;99.90;;;;;;5113911;28;20039;-74
2021/12/18 13:36:42;;;;;;;10.88;2.28;;;8.60;99.90;;;;;;5096064;28;20104;-74
2021/12/18 13:39:12;;;;;;;10.60;2.55;;;8.60;99.90;;;;;;5078472;28;20050;-73
2021/12/18 13:41:38;;;;;;;10.75;2.45;;;8.70;99.90;;;;;;5130080;27;20039;-74
2021/12/18 13:44:04;;;;;;;11.75;2.28;;;8.70;99.90;;;;;;5078727;28;20486;-74
2021/12/18 13:46:31;;;;;;;14.13;3.03;;;8.70;99.90;;;;;;5078606;28;20392;-74